createdAt,value
2018-12-13T00:00:56.172Z,1.70
2018-12-13T00:03:27.206Z,1.70
2018-12-13T00:05:58.180Z,1.80
2018-12-13T00:08:27.613Z,1.70
2018-12-13T00:10:56.701Z,1.70
2018-12-13T00:13:25.722Z,1.70
2018-12-13T00:15:54.719Z,1.70
2018-12-13T00:18:24.262Z,1.70
2018-12-13T00:20:53.349Z,1.70
2018-12-13T00:23:22.458Z,1.70
2018-12-13T00:25:51.497Z,1.70
2018-12-13T00:28:20.499Z,1.70
2018-12-13T00:30:49.464Z,1.80
2018-12-13T00:33:18.476Z,1.70
2018-12-13T00:35:47.541Z,1.70
2018-12-13T00:38:16.571Z,1.70
2018-12-13T00:40:45.677Z,1.70
2018-12-13T00:43:14.729Z,1.70
2018-12-13T00:45:43.859Z,1.70
2018-12-13T00:48:12.899Z,1.80
2018-12-13T00:50:42.008Z,1.70
2018-12-13T00:53:11.011Z,1.80
2018-12-13T00:55:40.205Z,1.70
2018-12-13T00:58:09.259Z,1.80
2018-12-13T01:00:38.397Z,1.80
2018-12-13T01:03:07.428Z,1.70
2018-12-13T01:05:36.781Z,1.70
2018-12-13T01:08:05.768Z,1.70
2018-12-13T01:10:34.876Z,1.80
2018-12-13T01:13:04.018Z,1.90
2018-12-13T01:15:33.849Z,1.90
2018-12-13T01:18:04.101Z,1.90
2018-12-13T01:20:33.088Z,1.90
2018-12-13T01:23:02.158Z,1.80
2018-12-13T01:25:31.275Z,1.80
2018-12-13T01:28:00.271Z,1.80
2018-12-13T01:30:29.375Z,1.80
2018-12-13T01:32:58.396Z,1.80
2018-12-13T01:35:27.463Z,1.80
2018-12-13T01:37:56.444Z,1.80
2018-12-13T01:40:25.505Z,1.90
2018-12-13T01:42:54.597Z,1.90
2018-12-13T01:45:24.653Z,1.80
2018-12-13T01:47:53.777Z,1.80
2018-12-13T01:50:22.880Z,1.80
2018-12-13T01:52:52.051Z,1.80
2018-12-13T01:55:21.003Z,1.80
2018-12-13T01:57:51.150Z,1.90
2018-12-13T02:00:20.190Z,1.80
2018-12-13T02:02:49.436Z,1.90
2018-12-13T02:05:18.471Z,1.80
2018-12-13T02:07:48.567Z,1.80
2018-12-13T02:10:17.641Z,1.80
2018-12-13T02:12:46.761Z,1.80
2018-12-13T02:15:15.893Z,1.80
2018-12-13T02:17:45.018Z,1.80
2018-12-13T02:20:14.213Z,1.70
2018-12-13T02:22:43.301Z,1.70
2018-12-13T02:25:12.303Z,1.80
2018-12-13T02:27:41.406Z,1.70
2018-12-13T02:30:11.541Z,1.70
2018-12-13T02:32:41.318Z,1.70
2018-12-13T02:35:10.526Z,1.60
2018-12-13T02:37:39.678Z,1.60
2018-12-13T02:40:08.643Z,1.70
2018-12-13T02:42:37.690Z,1.60
2018-12-13T02:45:06.681Z,1.60
2018-12-13T02:47:36.060Z,1.60
2018-12-13T02:50:05.639Z,1.60
2018-12-13T02:52:34.722Z,1.70
2018-12-13T02:55:03.813Z,1.60
2018-12-13T02:57:32.808Z,1.60
2018-12-13T03:00:01.831Z,1.60
2018-12-13T03:02:32.979Z,1.60
2018-12-13T03:05:02.109Z,1.60
2018-12-13T03:07:32.608Z,1.60
2018-12-13T03:10:01.970Z,1.60
2018-12-13T03:12:31.270Z,1.50
2018-12-13T03:15:00.445Z,1.60
2018-12-13T03:17:29.465Z,1.60
2018-12-13T03:19:58.448Z,1.60
2018-12-13T03:22:28.413Z,1.50
2018-12-13T03:24:57.433Z,1.50
2018-12-13T03:27:26.446Z,1.50
2018-12-13T03:29:55.641Z,1.50
2018-12-13T03:32:24.687Z,1.40
2018-12-13T03:34:54.831Z,1.40
2018-12-13T03:37:23.905Z,1.40
2018-12-13T03:39:53.052Z,1.40
2018-12-13T03:42:22.136Z,1.40
2018-12-13T03:44:51.185Z,1.40
2018-12-13T03:47:20.192Z,1.40
2018-12-13T03:49:49.262Z,1.40
2018-12-13T03:52:18.246Z,1.30
2018-12-13T03:54:47.500Z,1.30
2018-12-13T03:57:16.565Z,1.40
2018-12-13T03:59:45.682Z,1.30
2018-12-13T04:02:14.846Z,1.40
2018-12-13T04:04:43.975Z,1.30
2018-12-13T04:07:13.002Z,1.30
2018-12-13T04:09:42.949Z,1.30
2018-12-13T04:12:11.982Z,1.40
2018-12-13T04:14:41.156Z,1.40
2018-12-13T04:17:10.150Z,1.40
2018-12-13T04:19:41.143Z,1.40
2018-12-13T04:22:10.114Z,1.40
2018-12-13T04:24:39.178Z,1.40
2018-12-13T04:27:08.303Z,1.40
2018-12-13T04:29:37.433Z,1.30
2018-12-13T04:32:06.440Z,1.30
2018-12-13T04:34:35.437Z,1.40
2018-12-13T04:37:04.402Z,1.40
2018-12-13T04:39:33.570Z,1.40
2018-12-13T04:42:02.829Z,1.40
2018-12-13T04:44:31.813Z,1.30
2018-12-13T04:47:00.871Z,1.30
2018-12-13T04:49:29.927Z,1.30
2018-12-13T04:51:58.946Z,1.30
2018-12-13T04:54:28.065Z,1.30
2018-12-13T04:56:57.060Z,1.30
2018-12-13T04:59:26.071Z,1.20
2018-12-13T05:01:55.125Z,1.30
2018-12-13T05:04:24.146Z,1.20
2018-12-13T05:06:53.206Z,1.20
2018-12-13T05:09:22.303Z,1.20
2018-12-13T05:11:51.305Z,1.20
2018-12-13T05:14:20.329Z,1.20
2018-12-13T05:16:49.337Z,1.20
2018-12-13T05:19:18.371Z,1.20
2018-12-13T05:21:47.502Z,1.20
2018-12-13T05:24:16.566Z,1.30
2018-12-13T05:26:45.606Z,1.20
2018-12-13T05:29:14.758Z,1.20
2018-12-13T05:31:43.942Z,1.20
2018-12-13T05:34:13.015Z,1.30
2018-12-13T05:36:41.999Z,1.30
2018-12-13T05:39:11.089Z,1.30
2018-12-13T05:41:40.148Z,1.20
2018-12-13T05:44:09.177Z,1.20
2018-12-13T05:46:38.369Z,1.20
2018-12-13T05:49:07.355Z,1.20
2018-12-13T05:51:36.389Z,1.20
2018-12-13T05:54:05.353Z,1.30
2018-12-13T05:56:34.364Z,1.30
2018-12-13T05:59:03.352Z,1.30
2018-12-13T06:01:32.360Z,1.30
2018-12-13T06:04:01.336Z,1.40
2018-12-13T06:06:30.508Z,1.30
2018-12-13T06:08:59.577Z,1.30
2018-12-13T06:11:28.578Z,1.20
2018-12-13T06:13:57.553Z,1.30
2018-12-13T06:16:26.744Z,1.20
2018-12-13T06:18:55.724Z,1.20
2018-12-13T06:21:24.762Z,1.20
2018-12-13T06:23:53.724Z,1.20
2018-12-13T06:26:22.939Z,1.20
2018-12-13T06:28:52.062Z,1.30
2018-12-13T06:31:21.050Z,1.20
2018-12-13T06:33:50.222Z,1.30
2018-12-13T06:36:19.224Z,1.30
2018-12-13T06:38:48.778Z,1.20
2018-12-13T06:41:17.909Z,1.30
2018-12-13T06:43:46.956Z,1.30
2018-12-13T06:46:15.987Z,1.30
2018-12-13T06:48:44.954Z,1.30
2018-12-13T06:51:14.020Z,1.30
2018-12-13T06:53:43.012Z,1.20
2018-12-13T06:56:12.106Z,1.20
2018-12-13T06:58:41.122Z,1.20
2018-12-13T07:01:10.181Z,1.20
2018-12-13T07:03:39.323Z,1.20
2018-12-13T07:06:08.370Z,1.20
2018-12-13T07:08:37.374Z,1.10
2018-12-13T07:11:06.393Z,1.10
2018-12-13T07:13:35.542Z,1.10
2018-12-13T07:16:04.677Z,1.10
2018-12-13T07:18:33.862Z,1.10
2018-12-13T07:21:02.910Z,1.10
2018-12-13T07:23:32.017Z,1.20
2018-12-13T07:26:01.048Z,1.20
2018-12-13T07:28:30.294Z,1.20
2018-12-13T07:30:59.317Z,1.20
2018-12-13T07:33:28.346Z,1.10
2018-12-13T07:35:57.343Z,1.10
2018-12-13T07:38:26.484Z,1.10
2018-12-13T07:40:55.695Z,1.10
2018-12-13T07:43:24.692Z,1.10
2018-12-13T07:45:53.683Z,1.10
2018-12-13T07:48:23.803Z,1.10
2018-12-13T07:50:52.808Z,1.20
2018-12-13T07:53:21.845Z,1.20
2018-12-13T07:55:50.841Z,1.20
2018-12-13T07:58:19.892Z,1.10
2018-12-13T08:00:48.990Z,1.20
2018-12-13T08:03:18.077Z,1.20
2018-12-13T08:05:47.129Z,1.10
2018-12-13T08:08:20.787Z,1.20
2018-12-13T08:10:47.205Z,1.20
2018-12-13T08:13:16.281Z,1.10
2018-12-13T08:15:45.357Z,1.10
2018-12-13T08:18:14.314Z,1.10
2018-12-13T08:20:45.318Z,1.10
2018-12-13T08:23:14.448Z,1.10
2018-12-13T08:25:43.478Z,1.10
2018-12-13T08:28:12.487Z,1.10
2018-12-13T08:30:41.498Z,1.10
2018-12-13T08:33:10.589Z,1.10
2018-12-13T08:35:39.545Z,1.10
2018-12-13T08:38:08.642Z,1.10
2018-12-13T08:40:38.851Z,1.10
2018-12-13T08:43:08.093Z,1.10
2018-12-13T08:45:37.239Z,1.10
2018-12-13T08:48:06.208Z,1.10
2018-12-13T08:50:35.213Z,1.20
2018-12-13T08:53:04.242Z,1.10
2018-12-13T08:55:33.295Z,1.20
2018-12-13T08:58:02.333Z,1.20
2018-12-13T09:00:31.462Z,1.20
2018-12-13T09:03:00.578Z,1.20
2018-12-13T09:05:29.601Z,1.10
2018-12-13T09:07:58.689Z,1.10
2018-12-13T09:10:27.782Z,1.10
2018-12-13T09:12:56.874Z,1.10
2018-12-13T09:15:25.880Z,1.10
2018-12-13T09:17:54.926Z,1.10
2018-12-13T09:20:24.024Z,1.20
2018-12-13T09:22:53.052Z,1.20
2018-12-13T09:25:22.141Z,1.10
2018-12-13T09:27:51.181Z,1.10
2018-12-13T09:30:20.173Z,1.10
2018-12-13T09:32:49.297Z,1.10
2018-12-13T09:35:18.353Z,1.00
2018-12-13T09:37:47.886Z,1.00
2018-12-13T09:40:17.130Z,1.00
2018-12-13T09:42:46.236Z,1.00
2018-12-13T09:45:15.300Z,0.90
2018-12-13T09:47:44.373Z,0.90
2018-12-13T09:50:13.498Z,1.00
2018-12-13T09:52:42.495Z,1.00
2018-12-13T09:55:11.457Z,1.00
2018-12-13T09:57:40.513Z,0.90
2018-12-13T10:00:10.620Z,0.90
2018-12-13T10:02:39.707Z,0.90
2018-12-13T10:05:08.843Z,0.80
2018-12-13T10:07:38.029Z,0.80
2018-12-13T10:10:07.006Z,0.70
2018-12-13T10:12:35.991Z,0.80
2018-12-13T10:15:05.470Z,0.90
2018-12-13T10:17:35.604Z,0.90
2018-12-13T10:20:04.766Z,0.90
2018-12-13T10:22:33.914Z,1.00
2018-12-13T10:25:03.018Z,1.00
2018-12-13T10:27:32.146Z,1.00
2018-12-13T10:30:01.289Z,0.90
2018-12-13T10:32:30.466Z,0.80
2018-12-13T10:34:59.615Z,0.90
2018-12-13T10:37:28.649Z,0.90
2018-12-13T10:39:57.673Z,0.80
2018-12-13T10:42:26.898Z,0.80
2018-12-13T10:44:56.006Z,0.90
2018-12-13T10:47:24.997Z,0.90
2018-12-13T10:49:54.189Z,0.80
2018-12-13T10:52:23.160Z,0.80
2018-12-13T10:54:52.170Z,0.90
2018-12-13T10:57:21.209Z,0.80
2018-12-13T10:59:50.252Z,0.80
2018-12-13T11:02:24.536Z,0.90
2018-12-13T11:04:53.654Z,0.90
2018-12-13T11:07:22.780Z,0.90
2018-12-13T11:09:51.757Z,0.80
2018-12-13T11:12:20.993Z,0.80
2018-12-13T11:14:50.056Z,0.80
2018-12-13T11:17:19.095Z,0.90
2018-12-13T11:19:48.189Z,0.90
2018-12-13T11:22:17.226Z,0.90
2018-12-13T11:24:46.230Z,0.90
2018-12-13T11:27:26.474Z,0.90
2018-12-13T11:30:16.553Z,1.00
2018-12-13T11:32:45.848Z,0.90
2018-12-13T11:35:14.989Z,1.00
2018-12-13T11:37:44.169Z,1.00
2018-12-13T11:40:13.275Z,1.00
2018-12-13T11:42:42.522Z,1.10
2018-12-13T11:45:11.877Z,1.00
2018-12-13T11:47:41.369Z,1.00
2018-12-13T11:50:11.755Z,1.00
2018-12-13T11:52:42.736Z,1.10
2018-12-13T11:55:21.915Z,1.10
2018-12-13T11:57:50.902Z,1.10
2018-12-13T12:00:19.976Z,1.00
2018-12-13T12:02:50.033Z,1.10
2018-12-13T12:05:19.099Z,1.00
2018-12-13T12:07:48.251Z,1.00
2018-12-13T12:10:17.276Z,1.00
2018-12-13T12:12:46.381Z,1.00
2018-12-13T12:15:15.431Z,1.00
2018-12-13T12:17:44.474Z,1.00
2018-12-13T12:20:13.557Z,1.10
2018-12-13T12:22:42.694Z,1.00
2018-12-13T12:25:11.737Z,1.00
2018-12-13T12:27:40.794Z,0.90
2018-12-13T12:30:09.829Z,0.90
2018-12-13T12:32:38.930Z,0.90
2018-12-13T12:35:07.964Z,0.90
2018-12-13T12:37:37.222Z,1.00
2018-12-13T12:40:07.881Z,1.00
2018-12-13T12:42:36.984Z,1.00
2018-12-13T12:45:06.936Z,1.00
2018-12-13T12:47:35.903Z,1.10
2018-12-13T12:50:06.446Z,1.00
2018-12-13T12:52:35.516Z,0.90
2018-12-13T12:55:04.718Z,0.90
2018-12-13T12:57:33.759Z,0.90
2018-12-13T13:00:02.794Z,1.00
2018-12-13T13:02:33.217Z,0.90
2018-12-13T13:05:02.258Z,1.00
2018-12-13T13:07:31.546Z,1.00
2018-12-13T13:10:00.584Z,1.00
2018-12-13T13:12:29.633Z,1.00
2018-12-13T13:14:58.736Z,0.90
2018-12-13T13:17:27.734Z,1.00
2018-12-13T13:19:56.753Z,1.00
2018-12-13T13:22:25.801Z,0.90
2018-12-13T13:24:54.968Z,1.00
2018-12-13T13:27:24.079Z,0.90
2018-12-13T13:29:53.269Z,0.90
2018-12-13T13:32:22.338Z,0.80
2018-12-13T13:34:51.430Z,0.80
2018-12-13T13:37:20.495Z,0.80
2018-12-13T13:39:49.826Z,0.80
2018-12-13T13:42:18.985Z,0.80
2018-12-13T13:44:50.113Z,0.80
2018-12-13T13:47:19.192Z,0.90
2018-12-13T13:49:50.195Z,0.80
2018-12-13T13:52:19.318Z,0.80
2018-12-13T13:54:48.411Z,0.80
2018-12-13T13:57:17.465Z,0.80
2018-12-13T13:59:46.600Z,0.80
2018-12-13T14:02:15.709Z,0.80
2018-12-13T14:04:44.729Z,0.80
2018-12-13T14:07:13.914Z,0.70
2018-12-13T14:09:42.956Z,0.80
2018-12-13T14:12:11.992Z,0.80
2018-12-13T14:14:41.038Z,0.80
2018-12-13T14:17:10.178Z,0.90
2018-12-13T14:19:39.262Z,0.90
2018-12-13T14:22:08.366Z,0.80
2018-12-13T14:24:37.780Z,0.80
2018-12-13T14:27:06.997Z,0.80
2018-12-13T14:29:36.196Z,0.80
2018-12-13T14:32:05.384Z,0.80
2018-12-13T14:34:34.474Z,0.80
2018-12-13T14:37:03.569Z,0.90
2018-12-13T14:39:32.641Z,0.80
2018-12-13T14:42:05.171Z,0.70
2018-12-13T14:44:42.464Z,0.80
2018-12-13T14:47:11.540Z,0.80
2018-12-13T14:49:40.670Z,0.70
2018-12-13T14:52:09.682Z,0.70
2018-12-13T14:54:38.783Z,0.70
2018-12-13T14:57:07.826Z,0.70
2018-12-13T14:59:37.967Z,0.60
2018-12-13T15:02:07.026Z,0.60
2018-12-13T15:04:36.117Z,0.60
2018-12-13T15:07:06.172Z,0.60
2018-12-13T15:09:35.173Z,0.60
2018-12-13T15:12:04.242Z,0.60
2018-12-13T15:14:33.489Z,0.70
2018-12-13T15:17:02.646Z,0.70
2018-12-13T15:19:31.758Z,0.60
2018-12-13T15:22:00.913Z,0.60
2018-12-13T15:24:30.000Z,0.60
2018-12-13T15:26:59.082Z,0.60
2018-12-13T15:29:29.209Z,0.70
2018-12-13T15:31:59.397Z,0.70
2018-12-13T15:34:28.853Z,0.70
2018-12-13T15:36:57.930Z,0.60
2018-12-13T15:39:26.993Z,0.60
2018-12-13T15:41:56.120Z,0.60
2018-12-13T15:44:25.175Z,0.60
2018-12-13T15:46:54.233Z,0.60
2018-12-13T15:49:23.934Z,0.60
2018-12-13T15:51:52.966Z,0.70
2018-12-13T15:54:21.985Z,0.70
2018-12-13T15:56:50.997Z,0.60
2018-12-13T15:59:20.019Z,0.70
2018-12-13T16:01:49.062Z,0.70
2018-12-13T16:04:18.116Z,0.80
2018-12-13T16:06:47.095Z,0.80
2018-12-13T16:09:16.192Z,0.80
2018-12-13T16:11:45.173Z,0.70
2018-12-13T16:14:14.274Z,0.70
2018-12-13T16:16:43.314Z,0.80
2018-12-13T16:19:12.443Z,0.70
2018-12-13T16:21:41.529Z,0.80
2018-12-13T16:24:10.502Z,0.70
2018-12-13T16:26:39.549Z,0.70
2018-12-13T16:29:08.629Z,0.80
2018-12-13T16:31:37.665Z,0.70
2018-12-13T16:34:06.705Z,0.70
2018-12-13T16:36:35.742Z,0.70
2018-12-13T16:39:06.437Z,0.70
2018-12-13T16:41:37.497Z,0.70
2018-12-13T16:44:06.749Z,0.80
2018-12-13T16:46:35.801Z,0.70
2018-12-13T16:49:04.989Z,0.70
2018-12-13T16:51:34.017Z,0.80
2018-12-13T16:54:02.982Z,0.80
2018-12-13T16:56:32.059Z,0.90
2018-12-13T16:59:01.666Z,0.80
2018-12-13T17:01:30.626Z,0.90
2018-12-13T17:03:59.652Z,0.90
2018-12-13T17:06:28.619Z,0.90
2018-12-13T17:08:57.719Z,0.90
2018-12-13T17:11:26.728Z,0.80
2018-12-13T17:13:55.790Z,0.80
2018-12-13T17:16:24.843Z,0.90
2018-12-13T17:18:54.077Z,0.80
2018-12-13T17:21:23.170Z,0.80
2018-12-13T17:23:52.222Z,0.70
2018-12-13T17:26:21.214Z,0.70
2018-12-13T17:28:50.282Z,0.80
2018-12-13T17:31:19.539Z,0.80
2018-12-13T17:33:48.757Z,0.80
2018-12-13T17:36:17.817Z,0.80
2018-12-13T17:38:47.107Z,0.70
2018-12-13T17:41:16.182Z,0.70
2018-12-13T17:43:45.483Z,0.60
2018-12-13T17:46:14.628Z,0.70
2018-12-13T17:48:43.678Z,0.60
2018-12-13T17:51:12.685Z,0.60
2018-12-13T17:53:41.762Z,0.60
2018-12-13T17:56:10.837Z,0.70
2018-12-13T17:58:40.112Z,0.70
2018-12-13T18:01:09.185Z,0.60
2018-12-13T18:03:38.211Z,0.60
2018-12-13T18:06:07.240Z,0.60
2018-12-13T18:08:36.289Z,0.60
2018-12-13T18:11:05.394Z,0.60
2018-12-13T18:13:34.484Z,0.60
2018-12-13T18:16:03.565Z,0.60
2018-12-13T18:18:32.592Z,0.60
2018-12-13T18:21:01.708Z,0.60
2018-12-13T18:23:31.362Z,0.60
2018-12-13T18:26:00.404Z,0.60
2018-12-13T18:28:29.476Z,0.60
2018-12-13T18:30:58.608Z,0.60
2018-12-13T18:33:27.654Z,0.60
2018-12-13T18:35:56.678Z,0.60
2018-12-13T18:38:25.696Z,0.50
2018-12-13T18:40:54.775Z,0.60
2018-12-13T18:43:24.025Z,0.50
2018-12-13T18:45:53.059Z,0.60
2018-12-13T18:48:22.120Z,0.70
2018-12-13T18:50:51.193Z,0.70
2018-12-13T18:53:20.326Z,0.70
2018-12-13T18:55:49.352Z,0.70
2018-12-13T18:58:18.436Z,0.70
2018-12-13T19:00:47.483Z,0.60
2018-12-13T19:03:16.493Z,0.60
2018-12-13T19:05:45.618Z,0.60
2018-12-13T19:08:14.837Z,0.60
2018-12-13T19:10:44.089Z,0.60
2018-12-13T19:13:13.240Z,0.60
2018-12-13T19:15:44.537Z,0.70
2018-12-13T19:18:22.600Z,0.60
2018-12-13T19:20:55.834Z,0.60
2018-12-13T19:23:28.145Z,0.60
2018-12-13T19:25:59.304Z,0.60
2018-12-13T19:28:28.349Z,0.50
2018-12-13T19:30:57.443Z,0.40
2018-12-13T19:33:26.545Z,0.40
2018-12-13T19:35:55.585Z,0.40
2018-12-13T19:38:24.630Z,0.40
2018-12-13T19:40:53.743Z,0.40
2018-12-13T19:43:22.785Z,0.30
2018-12-13T19:45:51.985Z,0.30
2018-12-13T19:48:21.085Z,0.40
2018-12-13T19:50:50.586Z,0.40
2018-12-13T19:53:20.232Z,0.50
2018-12-13T19:55:49.250Z,0.50
2018-12-13T19:58:18.281Z,0.50
2018-12-13T20:00:47.346Z,0.40
2018-12-13T20:03:16.520Z,0.40
2018-12-13T20:05:45.606Z,0.30
2018-12-13T20:08:14.657Z,0.30
2018-12-13T20:10:43.664Z,0.30
2018-12-13T20:13:12.811Z,0.30
2018-12-13T20:15:41.852Z,0.30
2018-12-13T20:18:10.891Z,0.20
2018-12-13T20:20:39.921Z,0.10
2018-12-13T20:23:09.250Z,0.10
2018-12-13T20:25:38.414Z,0.10
2018-12-13T20:28:07.520Z,0.20
2018-12-13T20:30:36.827Z,0.20
2018-12-13T20:33:05.834Z,0.20
2018-12-13T20:35:34.947Z,0.20
2018-12-13T20:38:03.988Z,0.20
2018-12-13T20:40:33.043Z,0.20
2018-12-13T20:43:02.082Z,0.10
2018-12-13T20:45:31.235Z,0.10
2018-12-13T20:48:00.277Z,0.00
2018-12-13T20:50:29.382Z,0.10
2018-12-13T20:52:58.518Z,0.10
2018-12-13T20:55:27.631Z,0.10
2018-12-13T20:57:56.916Z,0.10
2018-12-13T21:00:26.004Z,0.10
2018-12-13T21:02:55.100Z,0.10
2018-12-13T21:05:24.268Z,0.10
2018-12-13T21:07:57.769Z,0.20
2018-12-13T21:10:26.862Z,0.20
2018-12-13T21:12:56.310Z,0.20
2018-12-13T21:15:25.530Z,0.20
2018-12-13T21:17:54.628Z,0.10
2018-12-13T21:20:23.770Z,0.10
2018-12-13T21:22:52.891Z,0.20
2018-12-13T21:25:21.958Z,0.10
2018-12-13T21:27:51.022Z,0.10
2018-12-13T21:30:20.229Z,0.10
2018-12-13T21:32:49.558Z,0.10
2018-12-13T21:35:18.690Z,0.10
2018-12-13T21:37:47.913Z,0.00
2018-12-13T21:40:16.981Z,0.10
2018-12-13T21:42:46.133Z,0.10
2018-12-13T21:45:15.250Z,0.10
2018-12-13T21:47:44.541Z,0.10
2018-12-13T21:50:13.685Z,0.10
2018-12-13T21:52:43.370Z,0.10
2018-12-13T21:55:12.402Z,0.20
2018-12-13T21:57:41.554Z,0.20
2018-12-13T22:00:11.339Z,0.20
2018-12-13T22:02:42.682Z,0.20
2018-12-13T22:05:11.760Z,0.00
2018-12-13T22:07:40.902Z,0.00
2018-12-13T22:10:10.089Z,0.00
2018-12-13T22:12:39.355Z,0.10
2018-12-13T22:15:11.459Z,0.00
2018-12-13T22:17:40.733Z,0.00
2018-12-13T22:20:09.869Z,-0.10
2018-12-13T22:22:38.902Z,0.00
2018-12-13T22:25:08.189Z,0.00
2018-12-13T22:27:37.281Z,0.10
2018-12-13T22:30:07.025Z,0.10
2018-12-13T22:32:36.141Z,0.10
2018-12-13T22:35:05.204Z,0.10
2018-12-13T22:37:34.271Z,0.20
2018-12-13T22:40:03.490Z,0.20
2018-12-13T22:42:32.630Z,0.20
2018-12-13T22:45:01.691Z,0.10
2018-12-13T22:47:30.874Z,0.00
2018-12-13T22:50:00.057Z,0.00
2018-12-13T22:52:29.201Z,0.00
2018-12-13T22:54:58.346Z,0.10
2018-12-13T22:57:27.415Z,0.10
2018-12-13T22:59:56.623Z,0.20
2018-12-13T23:02:25.689Z,0.10
2018-12-13T23:04:54.928Z,0.10
2018-12-13T23:07:24.006Z,0.10
2018-12-13T23:09:53.232Z,0.10
2018-12-13T23:12:22.305Z,0.10
2018-12-13T23:14:51.365Z,0.00
2018-12-13T23:17:20.626Z,0.00
2018-12-13T23:19:49.806Z,-0.10
2018-12-13T23:22:18.931Z,-0.10
2018-12-13T23:24:47.953Z,-0.10
2018-12-13T23:27:17.013Z,-0.10
2018-12-13T23:29:46.161Z,0.00
2018-12-13T23:32:15.305Z,0.00
2018-12-13T23:34:44.460Z,0.00
2018-12-13T23:37:13.704Z,0.00
2018-12-13T23:39:42.753Z,0.00
2018-12-13T23:42:11.861Z,0.00
2018-12-13T23:44:40.950Z,0.00
2018-12-13T23:47:09.978Z,0.00
2018-12-13T23:49:38.974Z,0.10
2018-12-13T23:52:08.072Z,0.00
2018-12-13T23:54:37.434Z,0.00
2018-12-13T23:57:06.481Z,0.00
2018-12-13T23:59:35.493Z,0.00
